Villaverde del Rio, Spain
Current Conditions -  °F | °C
As of 12:00 AM on Thursday 27 Nov 2014 (Local Time) from LEZL Reporting Station
Light Rain Light Rain  
Wind Chill: 57°   Ceiling: Unl
Heat Index: 57°   Visibility: 5mi
Dew Point: 54°   Wind: 14mph
Humidity: 88%   Direction: 130°SE
Pressure: 29.71"   Gusts: NA
Location:  37.59°N, 5.87°W
Report Text: LEZL 262300Z 13012KT 080V160 8000 -RA FEW020 SCT030 14/12 Q1006 NOSIG
Loading
Personal Weather Stations






























Interactive Weather Map New forecast layout! Learn more

10-Day Weather Forecast

Advertisements
Track Severe Weather on mobile